Terminal Aerodrome Forecast
Issued by NWS

Home | Current Version | Previous Version | Graphics & Text | Print | Product List | Glossary On
Versions: 1 2 3 4 5 6 7 8 9 10 11 12 13
000
FTUS42 KMHX 240958 AAA
TAFOAJ
TAF AMD
KOAJ 240958Z 2410/2506 00000KT 3SM BR SCT200
      TEMPO 2410/2412 1SM BR
     FM241300 VRB04KT P6SM SCT150
      AMD LTD TO CLD VIS AND WIND=

USA.gov is the U.S. government's official web portal to all federal, state and local government web resources and services.